Terminal Aerodrome Forecast
Issued by NWS

Home | Current Version | Previous Version | Text Only | Print | Product List | Glossary On
Versions: 1 2 3 4 5 6 7 8 9 10 11 12 13 14
182
FTUS45 KRIW 230528
TAFJAC
TAF
KJAC 230528Z 2306/2406 VRB03KT P6SM -SHRA SCT020 OVC035
     FM231100 VRB05KT 6SM -SHRA OVC025
     FM231900 19009KT 5SM -SHRA VCTS SCT030CB OVC050
     FM240200 23005KT 6SM -SHRA BKN020 OVC050
      AMD LTD TO CLD VIS AND WIND=

USA.gov is the U.S. government's official web portal to all federal, state and local government web resources and services.